createdAt,value
2019-01-11T00:01:24.962Z,11.87
2019-01-11T00:03:52.661Z,11.43
2019-01-11T00:06:20.292Z,11.87
2019-01-11T00:08:47.921Z,11.83
2019-01-11T00:11:15.631Z,11.43
2019-01-11T00:13:43.265Z,12.20
2019-01-11T00:16:10.867Z,11.00
2019-01-11T00:18:38.519Z,10.03
2019-01-11T00:21:06.170Z,12.00
2019-01-11T00:23:33.984Z,10.13
2019-01-11T00:26:01.624Z,10.57
2019-01-11T00:28:29.271Z,10.40
2019-01-11T00:30:56.939Z,9.47
2019-01-11T00:33:24.596Z,10.37
2019-01-11T00:35:52.262Z,9.40
2019-01-11T00:38:19.986Z,9.10
2019-01-11T00:40:47.650Z,9.03
2019-01-11T00:43:15.355Z,9.63
2019-01-11T00:45:43.067Z,9.37
2019-01-11T00:48:10.867Z,9.37
2019-01-11T00:50:38.535Z,8.70
2019-01-11T00:53:06.183Z,9.43
2019-01-11T00:55:33.847Z,8.17
2019-01-11T00:58:01.508Z,8.23
2019-01-11T01:00:29.192Z,9.10
2019-01-11T01:02:56.846Z,9.53
2019-01-11T01:05:25.168Z,9.23
2019-01-11T01:07:53.062Z,9.57
2019-01-11T01:10:23.388Z,9.00
2019-01-11T01:12:51.070Z,9.87
2019-01-11T01:15:19.608Z,11.43
2019-01-11T01:17:47.306Z,8.90
2019-01-11T01:20:15.164Z,10.07
2019-01-11T01:22:42.779Z,10.83
2019-01-11T01:25:11.259Z,11.73
2019-01-11T01:27:39.067Z,10.20
2019-01-11T01:30:10.069Z,10.30
2019-01-11T01:32:37.748Z,10.17
2019-01-11T01:35:05.475Z,9.87
2019-01-11T01:37:33.184Z,10.00
2019-01-11T01:40:00.810Z,10.20
2019-01-11T01:42:28.607Z,10.17
2019-01-11T01:44:56.274Z,9.87
2019-01-11T01:47:23.904Z,9.27
2019-01-11T01:49:51.576Z,9.13
2019-01-11T01:52:19.380Z,10.33
2019-01-11T01:54:47.081Z,10.60
2019-01-11T01:57:14.744Z,10.63
2019-01-11T01:59:42.440Z,9.80
2019-01-11T02:02:10.068Z,11.63
2019-01-11T02:04:37.695Z,11.20
2019-01-11T02:07:05.376Z,11.23
2019-01-11T02:09:33.041Z,10.73
2019-01-11T02:12:00.714Z,10.90
2019-01-11T02:14:28.496Z,12.77
2019-01-11T02:16:56.142Z,12.50
2019-01-11T02:19:23.762Z,11.67
2019-01-11T02:21:51.460Z,13.30
2019-01-11T02:24:19.061Z,12.63
2019-01-11T02:26:46.770Z,12.83
2019-01-11T02:29:14.406Z,12.30
2019-01-11T02:31:42.087Z,12.00
2019-01-11T02:34:09.841Z,13.00
2019-01-11T02:36:37.474Z,13.07
2019-01-11T02:39:06.814Z,13.10
2019-01-11T02:41:34.450Z,12.80
2019-01-11T02:44:02.140Z,13.20
2019-01-11T02:46:29.771Z,12.87
2019-01-11T02:48:57.417Z,13.03
2019-01-11T02:51:25.098Z,12.77
2019-01-11T02:53:52.807Z,12.87
2019-01-11T02:56:20.452Z,12.30
2019-01-11T02:58:48.129Z,11.73
2019-01-11T03:01:15.841Z,12.33
2019-01-11T03:03:43.639Z,12.03
2019-01-11T03:06:11.233Z,12.07
2019-01-11T03:08:38.858Z,12.30
2019-01-11T03:11:06.544Z,12.37
2019-01-11T03:13:34.198Z,12.87
2019-01-11T03:16:01.905Z,11.47
2019-01-11T03:18:29.531Z,11.53
2019-01-11T03:20:57.211Z,11.13
2019-01-11T03:23:24.856Z,10.73
2019-01-11T03:25:52.546Z,10.83
2019-01-11T03:28:20.215Z,10.00
2019-01-11T03:30:47.890Z,9.63
2019-01-11T03:33:15.565Z,10.17
2019-01-11T03:35:43.197Z,10.87
2019-01-11T03:38:10.864Z,10.00
2019-01-11T03:40:38.482Z,11.27
2019-01-11T03:43:06.190Z,10.23
2019-01-11T03:45:33.781Z,10.17
2019-01-11T03:48:01.574Z,10.83
2019-01-11T03:50:29.194Z,10.90
2019-01-11T03:52:56.846Z,9.37
2019-01-11T03:55:24.476Z,9.37
2019-01-11T03:57:52.162Z,9.43
2019-01-11T04:00:23.431Z,9.83
2019-01-11T04:02:51.192Z,9.83
2019-01-11T04:05:19.030Z,10.40
2019-01-11T04:07:46.754Z,9.80
2019-01-11T04:10:23.875Z,9.53
2019-01-11T04:12:51.564Z,8.80
2019-01-11T04:15:20.385Z,9.73
2019-01-11T04:18:05.837Z,9.00
2019-01-11T04:20:33.478Z,8.30
2019-01-11T04:23:01.113Z,8.43
2019-01-11T04:25:33.891Z,7.70
2019-01-11T04:28:01.557Z,8.33
2019-01-11T04:30:29.156Z,8.17
2019-01-11T04:32:56.868Z,7.70
2019-01-11T04:35:24.504Z,7.90
2019-01-11T04:37:52.156Z,8.03
2019-01-11T04:40:19.993Z,8.33
2019-01-11T04:42:47.636Z,6.60
2019-01-11T04:45:15.533Z,7.37
2019-01-11T04:47:43.177Z,7.30
2019-01-11T04:50:17.953Z,7.57
2019-01-11T04:52:46.274Z,7.63
2019-01-11T04:55:15.401Z,7.70
2019-01-11T04:57:43.095Z,7.07
2019-01-11T05:00:16.688Z,6.60
2019-01-11T05:02:44.332Z,6.90
2019-01-11T05:05:12.171Z,7.77
2019-01-11T05:07:39.869Z,7.03
2019-01-11T05:10:08.496Z,7.53
2019-01-11T05:12:36.307Z,8.53
2019-01-11T05:15:04.482Z,7.50
2019-01-11T05:17:32.114Z,7.40
2019-01-11T05:19:59.822Z,8.30
2019-01-11T05:22:27.482Z,8.00
2019-01-11T05:24:55.104Z,8.17
2019-01-11T05:27:22.792Z,8.17
2019-01-11T05:29:50.471Z,7.63
2019-01-11T05:32:18.199Z,8.57
2019-01-11T05:34:45.820Z,8.63
2019-01-11T05:37:13.477Z,8.90
2019-01-11T05:39:41.114Z,8.70
2019-01-11T05:42:08.788Z,8.90
2019-01-11T05:44:36.458Z,9.73
2019-01-11T05:47:04.199Z,8.87
2019-01-11T05:49:31.859Z,9.07
2019-01-11T05:51:59.551Z,10.17
2019-01-11T05:54:27.220Z,10.67
2019-01-11T05:56:54.908Z,10.63
2019-01-11T05:59:22.553Z,10.13
2019-01-11T06:01:50.184Z,10.40
2019-01-11T06:04:42.882Z,10.43
2019-01-11T06:07:28.112Z,10.20
2019-01-11T06:09:55.748Z,9.70
2019-01-11T06:12:23.345Z,9.93
2019-01-11T06:14:51.038Z,9.87
2019-01-11T06:17:18.658Z,10.40
2019-01-11T06:19:46.391Z,10.77
2019-01-11T06:22:14.045Z,10.30
2019-01-11T06:24:41.726Z,9.53
2019-01-11T06:27:09.560Z,10.43
2019-01-11T06:29:37.179Z,9.07
2019-01-11T06:32:05.231Z,11.17
2019-01-11T06:34:32.931Z,10.33
2019-01-11T06:37:00.608Z,9.73
2019-01-11T06:39:28.232Z,10.67
2019-01-11T06:42:01.792Z,11.40
2019-01-11T06:44:29.453Z,11.20
2019-01-11T06:46:57.142Z,10.70
2019-01-11T06:49:24.793Z,10.37
2019-01-11T06:51:52.509Z,11.67
2019-01-11T06:54:20.112Z,10.23
2019-01-11T06:56:47.796Z,12.73
2019-01-11T06:59:15.469Z,13.37
2019-01-11T07:01:43.148Z,12.27
2019-01-11T07:04:10.821Z,12.47
2019-01-11T07:06:38.480Z,11.73
2019-01-11T07:09:07.978Z,11.87
2019-01-11T07:11:35.693Z,12.40
2019-01-11T07:14:03.694Z,12.23
2019-01-11T07:16:31.362Z,12.30
2019-01-11T07:18:59.137Z,13.70
2019-01-11T07:21:26.759Z,12.13
2019-01-11T07:23:54.596Z,12.43
2019-01-11T07:26:22.206Z,11.50
2019-01-11T07:28:49.836Z,12.60
2019-01-11T07:31:20.902Z,13.93
2019-01-11T07:33:48.567Z,12.97
2019-01-11T07:36:44.693Z,13.87
2019-01-11T07:39:31.416Z,13.77
2019-01-11T07:41:59.178Z,12.23
2019-01-11T07:44:26.864Z,13.30
2019-01-11T07:46:54.752Z,13.53
2019-01-11T07:49:23.296Z,13.30
2019-01-11T07:51:51.100Z,12.93
2019-01-11T07:54:18.732Z,13.07
2019-01-11T07:56:46.368Z,13.33
2019-01-11T07:59:14.040Z,12.97
2019-01-11T08:01:41.796Z,12.70
2019-01-11T08:04:09.410Z,13.73
2019-01-11T08:06:37.028Z,12.83
2019-01-11T08:09:07.076Z,12.47
2019-01-11T08:11:34.823Z,14.27
2019-01-11T08:14:02.631Z,13.73
2019-01-11T08:16:30.328Z,15.40
2019-01-11T08:18:57.999Z,15.97
2019-01-11T08:21:25.644Z,14.23
2019-01-11T08:23:53.520Z,16.27
2019-01-11T08:26:21.154Z,14.07
2019-01-11T08:28:48.783Z,15.77
2019-01-11T08:31:16.454Z,14.93
2019-01-11T08:33:45.175Z,18.53
2019-01-11T08:36:12.875Z,15.77
2019-01-11T08:38:40.503Z,17.23
2019-01-11T08:41:08.152Z,14.40
2019-01-11T08:43:35.812Z,17.10
2019-01-11T08:46:03.468Z,16.77
2019-01-11T08:48:31.127Z,15.70
2019-01-11T08:51:02.569Z,16.00
2019-01-11T08:53:28.331Z,19.03
2019-01-11T08:55:56.069Z,17.90
2019-01-11T08:58:23.712Z,18.53
2019-01-11T09:00:52.501Z,18.30
2019-01-11T09:03:20.171Z,17.17
2019-01-11T09:05:47.846Z,17.10
2019-01-11T09:08:15.511Z,18.47
2019-01-11T09:10:43.147Z,17.57
2019-01-11T09:13:10.838Z,18.40
2019-01-11T09:15:38.449Z,18.33
2019-01-11T09:18:12.682Z,17.40
2019-01-11T09:20:41.016Z,17.30
2019-01-11T09:23:08.787Z,16.77
2019-01-11T09:25:36.416Z,16.33
2019-01-11T09:28:04.073Z,15.07
2019-01-11T09:30:31.757Z,14.53
2019-01-11T09:32:59.412Z,14.10
2019-01-11T09:35:27.044Z,13.37
2019-01-11T09:37:54.691Z,13.53
2019-01-11T09:40:22.367Z,12.57
2019-01-11T09:42:50.312Z,13.70
2019-01-11T09:45:17.976Z,12.70
2019-01-11T09:47:45.715Z,14.43
2019-01-11T09:50:13.429Z,13.40
2019-01-11T09:52:41.019Z,12.87
2019-01-11T09:55:08.839Z,12.97
2019-01-11T09:57:36.454Z,13.60
2019-01-11T10:00:07.423Z,14.67
2019-01-11T10:02:46.139Z,12.77
2019-01-11T10:05:14.173Z,14.10
2019-01-11T10:07:41.819Z,15.83
2019-01-11T10:10:12.045Z,14.50
2019-01-11T10:12:39.711Z,14.70
2019-01-11T10:15:08.631Z,15.60
2019-01-11T10:17:37.500Z,14.90
2019-01-11T10:20:06.018Z,18.60
2019-01-11T10:22:33.705Z,16.30
2019-01-11T10:25:01.346Z,16.63
2019-01-11T10:27:29.004Z,18.03
2019-01-11T10:29:56.668Z,18.07
2019-01-11T10:32:24.263Z,17.57
2019-01-11T10:34:51.939Z,17.83
2019-01-11T10:37:19.599Z,18.07
2019-01-11T10:39:47.238Z,16.30
2019-01-11T10:42:15.215Z,17.47
2019-01-11T10:44:42.884Z,16.10
2019-01-11T10:47:10.507Z,18.03
2019-01-11T10:49:38.190Z,18.13
2019-01-11T10:52:05.887Z,16.30
2019-01-11T10:54:43.136Z,16.33
2019-01-11T10:57:11.223Z,17.13
2019-01-11T10:59:38.898Z,15.37
2019-01-11T11:02:06.713Z,16.80
2019-01-11T11:04:34.643Z,16.87
2019-01-11T11:07:02.370Z,17.10
2019-01-11T11:09:30.061Z,16.57
2019-01-11T11:11:57.655Z,16.80
2019-01-11T11:14:25.392Z,15.87
2019-01-11T11:16:53.060Z,16.53
2019-01-11T11:19:20.696Z,18.10
2019-01-11T11:21:48.361Z,15.97
2019-01-11T11:24:16.003Z,16.37
2019-01-11T11:26:43.680Z,16.03
2019-01-11T11:29:11.318Z,14.03
2019-01-11T11:31:39.007Z,13.73
2019-01-11T11:34:06.664Z,13.87
2019-01-11T11:36:34.447Z,15.00
2019-01-11T11:39:03.554Z,13.47
2019-01-11T11:41:31.191Z,12.30
2019-01-11T11:43:58.841Z,13.50
2019-01-11T11:46:26.572Z,12.87
2019-01-11T11:48:54.283Z,13.13
2019-01-11T11:51:22.150Z,12.47
2019-01-11T11:53:49.936Z,11.10
2019-01-11T11:56:17.579Z,11.43
2019-01-11T11:58:45.221Z,12.10
2019-01-11T12:01:13.027Z,11.97
2019-01-11T12:03:40.655Z,11.20
2019-01-11T12:06:08.277Z,11.40
2019-01-11T12:08:35.955Z,10.40
2019-01-11T12:11:03.591Z,10.07
2019-01-11T12:13:34.520Z,10.70
2019-01-11T12:16:00.688Z,12.27
2019-01-11T12:18:28.337Z,9.47
2019-01-11T12:20:55.940Z,10.27
2019-01-11T12:23:23.612Z,10.20
2019-01-11T12:25:51.221Z,10.13
2019-01-11T12:28:18.836Z,9.00
2019-01-11T12:30:46.504Z,9.53
2019-01-11T12:33:14.189Z,8.13
2019-01-11T12:35:41.842Z,9.73
2019-01-11T12:38:13.638Z,7.93
2019-01-11T12:40:38.957Z,8.30
2019-01-11T12:43:06.640Z,7.63
2019-01-11T12:45:34.286Z,7.87
2019-01-11T12:48:01.887Z,6.73
2019-01-11T12:50:29.569Z,6.93
2019-01-11T12:52:57.227Z,7.33
2019-01-11T12:55:26.053Z,6.57
2019-01-11T12:57:53.716Z,6.17
2019-01-11T13:00:21.552Z,6.37
2019-01-11T13:02:49.225Z,5.90
2019-01-11T13:05:19.187Z,7.10
2019-01-11T13:07:46.847Z,6.33
2019-01-11T13:10:15.619Z,5.97
2019-01-11T13:12:43.291Z,6.97
2019-01-11T13:15:15.683Z,7.10
2019-01-11T13:17:44.363Z,6.77
2019-01-11T13:20:13.317Z,8.23
2019-01-11T13:22:41.125Z,7.97
2019-01-11T13:25:08.860Z,7.13
2019-01-11T13:27:36.496Z,6.33
2019-01-11T13:30:06.083Z,5.40
2019-01-11T13:32:33.735Z,5.83
2019-01-11T13:35:01.400Z,4.93
2019-01-11T13:37:29.028Z,4.57
2019-01-11T13:39:56.688Z,4.13
2019-01-11T13:42:24.320Z,4.57
2019-01-11T13:44:51.978Z,4.37
2019-01-11T13:47:19.622Z,3.97
2019-01-11T13:49:47.275Z,3.50
2019-01-11T13:52:14.938Z,3.37
2019-01-11T13:54:42.585Z,3.37
2019-01-11T13:57:10.220Z,2.87
2019-01-11T13:59:41.537Z,2.97
2019-01-11T14:02:07.312Z,2.90
2019-01-11T14:04:34.991Z,3.33
2019-01-11T14:07:02.615Z,3.27
2019-01-11T14:09:30.382Z,2.97
2019-01-11T14:11:58.095Z,2.97
2019-01-11T14:14:25.738Z,2.53
2019-01-11T14:16:54.324Z,2.30
2019-01-11T14:19:22.047Z,2.50
2019-01-11T14:21:49.707Z,2.57
2019-01-11T14:24:17.398Z,2.60
2019-01-11T14:26:45.054Z,2.50
2019-01-11T14:29:12.688Z,2.40
2019-01-11T14:31:40.351Z,2.83
2019-01-11T14:34:08.029Z,2.47
2019-01-11T14:36:35.677Z,2.60
2019-01-11T14:39:05.439Z,2.63
2019-01-11T14:41:33.229Z,2.57
2019-01-11T14:44:01.200Z,2.30
2019-01-11T14:46:28.947Z,2.50
2019-01-11T14:48:56.583Z,2.60
2019-01-11T14:51:24.271Z,2.60
2019-01-11T14:53:51.928Z,2.90
2019-01-11T14:56:19.531Z,2.60
2019-01-11T14:58:47.212Z,2.37
2019-01-11T15:01:14.811Z,3.13
2019-01-11T15:03:42.504Z,2.60
2019-01-11T15:06:10.134Z,2.60
2019-01-11T15:08:37.820Z,2.23
2019-01-11T15:11:05.444Z,2.47
2019-01-11T15:13:33.151Z,2.40
2019-01-11T15:16:00.767Z,2.07
2019-01-11T15:18:28.572Z,2.70
2019-01-11T15:20:56.215Z,2.50
2019-01-11T15:23:23.871Z,2.30
2019-01-11T15:25:51.511Z,2.50
2019-01-11T15:28:19.151Z,2.50
2019-01-11T15:30:46.804Z,2.10
2019-01-11T15:33:14.473Z,2.23
2019-01-11T15:35:42.207Z,2.20
2019-01-11T15:38:09.956Z,2.10
2019-01-11T15:40:38.423Z,2.47
2019-01-11T15:43:06.116Z,2.33
2019-01-11T15:45:33.822Z,2.67
2019-01-11T15:48:03.721Z,2.73
2019-01-11T15:51:03.108Z,2.50
2019-01-11T15:53:37.136Z,2.60
2019-01-11T15:56:07.548Z,3.37
2019-01-11T15:58:35.178Z,2.63
2019-01-11T16:01:02.841Z,3.30
2019-01-11T16:03:30.513Z,3.30
2019-01-11T16:06:29.472Z,3.47
2019-01-11T16:10:15.688Z,3.57
2019-01-11T16:13:15.405Z,3.17
2019-01-11T16:16:33.061Z,2.93
2019-01-11T16:19:00.730Z,2.97
2019-01-11T16:21:28.394Z,3.20
2019-01-11T16:23:56.033Z,3.20
2019-01-11T16:26:23.653Z,3.13
2019-01-11T16:28:53.964Z,3.13
2019-01-11T16:31:22.724Z,2.90
2019-01-11T16:33:50.452Z,2.60
2019-01-11T16:36:18.071Z,3.07
2019-01-11T16:38:46.838Z,3.13
2019-01-11T16:41:14.437Z,2.50
2019-01-11T16:43:42.079Z,3.07
2019-01-11T16:46:10.779Z,2.90
2019-01-11T16:48:38.423Z,3.10
2019-01-11T16:51:06.274Z,2.60
2019-01-11T16:53:33.892Z,2.40
2019-01-11T16:56:01.552Z,2.60
2019-01-11T16:58:29.320Z,2.80
2019-01-11T17:00:57.132Z,2.60
2019-01-11T17:03:24.782Z,2.43
2019-01-11T17:05:52.510Z,2.87
2019-01-11T17:08:20.234Z,2.67
2019-01-11T17:10:48.059Z,3.03
2019-01-11T17:13:15.644Z,2.83
2019-01-11T17:15:43.320Z,3.00
2019-01-11T17:18:10.980Z,3.00
2019-01-11T17:20:38.755Z,3.77
2019-01-11T17:23:06.422Z,2.63
2019-01-11T17:25:34.666Z,3.40
2019-01-11T17:28:02.390Z,3.33
2019-01-11T17:30:30.041Z,3.07
2019-01-11T17:32:57.718Z,2.90
2019-01-11T17:35:25.348Z,3.40
2019-01-11T17:37:53.000Z,3.47
2019-01-11T17:40:20.657Z,3.67
2019-01-11T17:42:48.347Z,3.20
2019-01-11T17:45:16.022Z,3.10
2019-01-11T17:47:43.753Z,3.07
2019-01-11T17:50:16.848Z,2.83
2019-01-11T17:52:44.500Z,3.37
2019-01-11T17:55:13.347Z,2.87
2019-01-11T17:57:40.983Z,3.13
2019-01-11T18:00:11.326Z,3.47
2019-01-11T18:02:39.092Z,4.47
2019-01-11T18:05:07.919Z,3.67
2019-01-11T18:07:35.579Z,3.90
2019-01-11T18:10:05.596Z,3.53
2019-01-11T18:12:33.221Z,3.93
2019-01-11T18:15:00.895Z,3.30
2019-01-11T18:17:28.551Z,3.43
2019-01-11T18:19:56.208Z,3.43
2019-01-11T18:22:23.839Z,3.83
2019-01-11T18:24:51.494Z,3.60
2019-01-11T18:27:19.152Z,4.00
2019-01-11T18:29:46.810Z,3.53
2019-01-11T18:32:14.527Z,3.97
2019-01-11T18:34:42.215Z,4.23
2019-01-11T18:37:10.108Z,3.20
2019-01-11T18:39:37.880Z,4.33
2019-01-11T18:42:05.712Z,4.03
2019-01-11T18:44:33.508Z,4.23
2019-01-11T18:47:01.249Z,3.63
2019-01-11T18:49:29.071Z,3.27
2019-01-11T18:51:57.162Z,3.73
2019-01-11T18:54:24.955Z,3.43
2019-01-11T18:56:52.997Z,3.80
2019-01-11T18:59:20.633Z,2.97
2019-01-11T19:01:48.559Z,3.60
2019-01-11T19:04:16.366Z,3.70
2019-01-11T19:06:44.180Z,4.23
2019-01-11T19:09:12.051Z,3.00
2019-01-11T19:11:39.865Z,2.63
2019-01-11T19:14:07.754Z,4.03
2019-01-11T19:16:35.572Z,3.27
2019-01-11T19:19:03.673Z,3.20
2019-01-11T19:21:31.725Z,3.33
2019-01-11T19:23:59.384Z,4.43
2019-01-11T19:26:27.082Z,3.63
2019-01-11T19:28:54.912Z,4.03
2019-01-11T19:31:22.625Z,4.00
2019-01-11T19:33:50.289Z,3.67
2019-01-11T19:36:17.912Z,3.50
2019-01-11T19:38:45.556Z,4.03
2019-01-11T19:41:13.227Z,3.50
2019-01-11T19:43:40.934Z,3.00
2019-01-11T19:46:08.596Z,3.77
2019-01-11T19:48:36.259Z,3.37
2019-01-11T19:51:04.176Z,3.27
2019-01-11T19:53:31.904Z,3.27
2019-01-11T19:55:59.569Z,4.47
2019-01-11T19:58:27.319Z,3.40
2019-01-11T20:00:55.032Z,4.13
2019-01-11T20:03:22.732Z,3.77
2019-01-11T20:05:50.670Z,4.10
2019-01-11T20:08:18.725Z,3.63
2019-01-11T20:10:46.676Z,5.17
2019-01-11T20:13:14.500Z,3.67
2019-01-11T20:15:42.346Z,4.53
2019-01-11T20:18:12.697Z,3.03
2019-01-11T20:20:40.556Z,3.10
2019-01-11T20:23:09.919Z,5.10
2019-01-11T20:25:37.792Z,3.67
2019-01-11T20:28:05.646Z,3.27
2019-01-11T20:30:33.203Z,3.90
2019-01-11T20:33:00.913Z,4.47
2019-01-11T20:35:28.532Z,3.37
2019-01-11T20:37:56.334Z,4.80
2019-01-11T20:40:24.207Z,3.60
2019-01-11T20:42:51.839Z,4.03
2019-01-11T20:45:21.267Z,4.03
2019-01-11T20:47:48.885Z,4.50
2019-01-11T20:50:24.318Z,2.90
2019-01-11T20:52:52.107Z,3.40
2019-01-11T20:55:19.800Z,3.90
2019-01-11T20:57:47.467Z,3.70
2019-01-11T21:00:31.980Z,3.70
2019-01-11T21:02:59.854Z,4.20
2019-01-11T21:05:28.233Z,5.33
2019-01-11T21:07:56.035Z,3.77
2019-01-11T21:10:26.551Z,4.37
2019-01-11T21:12:54.156Z,4.20
2019-01-11T21:15:22.256Z,3.80
2019-01-11T21:17:50.060Z,3.53
2019-01-11T21:20:17.922Z,3.50
2019-01-11T21:22:45.784Z,4.10
2019-01-11T21:25:14.174Z,4.00
2019-01-11T21:27:42.117Z,3.57
2019-01-11T21:30:15.787Z,4.03
2019-01-11T21:32:43.636Z,5.47
2019-01-11T21:35:11.303Z,4.10
2019-01-11T21:37:38.943Z,4.10
2019-01-11T21:40:07.376Z,4.10
2019-01-11T21:42:34.992Z,5.27
2019-01-11T21:45:03.547Z,3.57
2019-01-11T21:47:31.239Z,3.60
2019-01-11T21:49:58.976Z,3.20
2019-01-11T21:52:26.632Z,4.07
2019-01-11T21:54:54.308Z,4.53
2019-01-11T21:57:21.976Z,3.43
2019-01-11T21:59:49.641Z,4.20
2019-01-11T22:02:17.321Z,3.03
2019-01-11T22:04:44.947Z,4.07
2019-01-11T22:07:12.654Z,3.00
2019-01-11T22:09:40.303Z,4.10
2019-01-11T22:12:07.952Z,3.97
2019-01-11T22:14:35.599Z,3.63
2019-01-11T22:17:03.495Z,4.37
2019-01-11T22:19:31.113Z,3.70
2019-01-11T22:21:58.766Z,4.13
2019-01-11T22:24:26.445Z,3.87
2019-01-11T22:26:54.092Z,3.97
2019-01-11T22:29:21.699Z,5.67
2019-01-11T22:31:49.359Z,4.67
2019-01-11T22:34:17.032Z,4.23
2019-01-11T22:36:44.723Z,4.47
2019-01-11T22:39:12.356Z,4.30
2019-01-11T22:41:39.988Z,4.33
2019-01-11T22:44:07.657Z,4.93
2019-01-11T22:46:35.319Z,4.33
2019-01-11T22:49:03.059Z,3.57
2019-01-11T22:51:30.673Z,4.33
2019-01-11T22:53:58.312Z,4.77
2019-01-11T22:56:26.002Z,4.27
2019-01-11T22:58:53.632Z,3.60
2019-01-11T23:01:44.664Z,4.93
2019-01-11T23:04:12.296Z,4.33
2019-01-11T23:07:36.763Z,4.73
2019-01-11T23:10:41.939Z,3.90
2019-01-11T23:13:12.927Z,3.50
2019-01-11T23:15:43.457Z,3.50
2019-01-11T23:18:16.214Z,3.07
2019-01-11T23:20:44.306Z,3.90
2019-01-11T23:23:11.939Z,4.20
2019-01-11T23:25:39.755Z,4.13
2019-01-11T23:28:07.404Z,4.43
2019-01-11T23:30:35.054Z,5.00
2019-01-11T23:33:02.865Z,3.87
2019-01-11T23:35:30.515Z,4.63
2019-01-11T23:37:58.129Z,4.73
2019-01-11T23:40:25.833Z,4.00
2019-01-11T23:42:53.571Z,3.90
2019-01-11T23:45:21.354Z,4.60
2019-01-11T23:47:49.100Z,4.13
2019-01-11T23:50:17.015Z,4.37
2019-01-11T23:52:44.802Z,3.80
2019-01-11T23:55:12.500Z,4.00
2019-01-11T23:57:40.183Z,4.80
